sensor_id;sensor_type;location;lat;lon;timestamp;temperature;humidity
2749;DHT22;1382;52.142;11.618;2023-08-08T00:01:54;18.70;49.10
2749;DHT22;1382;52.142;11.618;2023-08-08T00:04:21;18.60;49.20
2749;DHT22;1382;52.142;11.618;2023-08-08T00:06:48;18.60;48.50
2749;DHT22;1382;52.142;11.618;2023-08-08T00:09:16;18.60;49.00
2749;DHT22;1382;52.142;11.618;2023-08-08T00:11:43;18.60;48.90
2749;DHT22;1382;52.142;11.618;2023-08-08T00:14:10;18.50;48.70
2749;DHT22;1382;52.142;11.618;2023-08-08T00:16:36;18.50;48.30
2749;DHT22;1382;52.142;11.618;2023-08-08T00:19:03;18.50;48.40
2749;DHT22;1382;52.142;11.618;2023-08-08T00:21:30;18.50;48.40
2749;DHT22;1382;52.142;11.618;2023-08-08T00:23:57;18.50;48.30
2749;DHT22;1382;52.142;11.618;2023-08-08T00:26:25;18.50;48.20
2749;DHT22;1382;52.142;11.618;2023-08-08T00:28:52;18.50;48.30
2749;DHT22;1382;52.142;11.618;2023-08-08T00:31:18;18.40;47.80
2749;DHT22;1382;52.142;11.618;2023-08-08T00:33:46;18.40;47.80
2749;DHT22;1382;52.142;11.618;2023-08-08T00:36:13;18.50;47.90
2749;DHT22;1382;52.142;11.618;2023-08-08T00:38:39;18.40;48.00
2749;DHT22;1382;52.142;11.618;2023-08-08T00:41:06;18.40;48.70
2749;DHT22;1382;52.142;11.618;2023-08-08T00:43:35;18.40;48.50
2749;DHT22;1382;52.142;11.618;2023-08-08T00:46:02;18.40;49.10
2749;DHT22;1382;52.142;11.618;2023-08-08T00:48:29;18.30;48.30
2749;DHT22;1382;52.142;11.618;2023-08-08T00:50:56;18.20;49.00
2749;DHT22;1382;52.142;11.618;2023-08-08T00:53:23;18.20;49.10
2749;DHT22;1382;52.142;11.618;2023-08-08T00:55:51;18.20;49.10
2749;DHT22;1382;52.142;11.618;2023-08-08T00:58:18;18.10;49.10
2749;DHT22;1382;52.142;11.618;2023-08-08T01:00:46;18.10;49.50
2749;DHT22;1382;52.142;11.618;2023-08-08T01:03:13;18.10;49.20
2749;DHT22;1382;52.142;11.618;2023-08-08T01:05:44;18.00;49.30
2749;DHT22;1382;52.142;11.618;2023-08-08T01:08:16;18.00;49.30
2749;DHT22;1382;52.142;11.618;2023-08-08T01:10:43;18.00;49.20
2749;DHT22;1382;52.142;11.618;2023-08-08T01:13:13;18.00;49.20
2749;DHT22;1382;52.142;11.618;2023-08-08T01:15:41;18.00;49.50
2749;DHT22;1382;52.142;11.618;2023-08-08T01:18:11;18.00;48.90
2749;DHT22;1382;52.142;11.618;2023-08-08T01:20:39;17.90;49.00
2749;DHT22;1382;52.142;11.618;2023-08-08T01:23:12;17.90;49.00
2749;DHT22;1382;52.142;11.618;2023-08-08T01:25:44;18.00;48.90
2749;DHT22;1382;52.142;11.618;2023-08-08T01:28:11;17.90;48.90
2749;DHT22;1382;52.142;11.618;2023-08-08T01:30:38;18.00;49.10
2749;DHT22;1382;52.142;11.618;2023-08-08T01:33:06;17.90;48.80
2749;DHT22;1382;52.142;11.618;2023-08-08T01:35:38;17.90;48.70
2749;DHT22;1382;52.142;11.618;2023-08-08T01:38:10;17.90;48.90
2749;DHT22;1382;52.142;11.618;2023-08-08T01:40:38;17.90;49.20
2749;DHT22;1382;52.142;11.618;2023-08-08T01:43:07;17.80;48.80
2749;DHT22;1382;52.142;11.618;2023-08-08T01:45:35;17.90;48.80
2749;DHT22;1382;52.142;11.618;2023-08-08T01:48:06;17.80;49.10
2749;DHT22;1382;52.142;11.618;2023-08-08T01:50:33;17.80;49.00
2749;DHT22;1382;52.142;11.618;2023-08-08T01:53:00;17.80;49.50
2749;DHT22;1382;52.142;11.618;2023-08-08T01:55:27;17.80;49.30
2749;DHT22;1382;52.142;11.618;2023-08-08T01:57:54;17.80;49.20
2749;DHT22;1382;52.142;11.618;2023-08-08T02:00:22;17.80;49.80
2749;DHT22;1382;52.142;11.618;2023-08-08T02:02:49;17.70;49.10
2749;DHT22;1382;52.142;11.618;2023-08-08T02:05:16;17.70;48.90
2749;DHT22;1382;52.142;11.618;2023-08-08T02:07:43;17.80;49.50
2749;DHT22;1382;52.142;11.618;2023-08-08T02:10:10;17.70;49.90
2749;DHT22;1382;52.142;11.618;2023-08-08T02:12:37;17.70;50.00
2749;DHT22;1382;52.142;11.618;2023-08-08T02:15:05;17.60;50.30
2749;DHT22;1382;52.142;11.618;2023-08-08T02:17:33;17.60;50.60
2749;DHT22;1382;52.142;11.618;2023-08-08T02:20:00;17.60;50.90
2749;DHT22;1382;52.142;11.618;2023-08-08T02:22:27;17.60;50.80
2749;DHT22;1382;52.142;11.618;2023-08-08T02:24:54;17.60;51.20
2749;DHT22;1382;52.142;11.618;2023-08-08T02:27:21;17.50;51.00
2749;DHT22;1382;52.142;11.618;2023-08-08T02:29:47;17.70;51.40
2749;DHT22;1382;52.142;11.618;2023-08-08T02:32:14;17.60;52.20
2749;DHT22;1382;52.142;11.618;2023-08-08T02:34:42;17.50;52.80
2749;DHT22;1382;52.142;11.618;2023-08-08T02:37:09;17.50;52.00
2749;DHT22;1382;52.142;11.618;2023-08-08T02:39:36;17.40;51.20
2749;DHT22;1382;52.142;11.618;2023-08-08T02:42:03;17.50;51.40
2749;DHT22;1382;52.142;11.618;2023-08-08T02:44:30;17.50;52.00
2749;DHT22;1382;52.142;11.618;2023-08-08T02:46:57;17.50;51.50
2749;DHT22;1382;52.142;11.618;2023-08-08T02:49:24;17.50;51.40
2749;DHT22;1382;52.142;11.618;2023-08-08T02:51:52;17.70;52.20
2749;DHT22;1382;52.142;11.618;2023-08-08T02:54:19;17.60;51.50
2749;DHT22;1382;52.142;11.618;2023-08-08T02:56:46;17.60;52.00
2749;DHT22;1382;52.142;11.618;2023-08-08T02:59:13;17.60;52.30
2749;DHT22;1382;52.142;11.618;2023-08-08T03:01:40;17.60;51.60
2749;DHT22;1382;52.142;11.618;2023-08-08T03:04:07;17.60;52.30
2749;DHT22;1382;52.142;11.618;2023-08-08T03:06:33;17.70;51.30
2749;DHT22;1382;52.142;11.618;2023-08-08T03:09:02;17.60;51.60
2749;DHT22;1382;52.142;11.618;2023-08-08T03:11:29;17.60;51.00
2749;DHT22;1382;52.142;11.618;2023-08-08T03:13:55;17.60;51.80
2749;DHT22;1382;52.142;11.618;2023-08-08T03:16:22;17.60;51.50
2749;DHT22;1382;52.142;11.618;2023-08-08T03:18:50;17.60;51.60
2749;DHT22;1382;52.142;11.618;2023-08-08T03:21:16;17.50;51.20
2749;DHT22;1382;52.142;11.618;2023-08-08T03:23:44;17.60;51.30
2749;DHT22;1382;52.142;11.618;2023-08-08T03:26:12;17.60;52.50
2749;DHT22;1382;52.142;11.618;2023-08-08T03:28:39;17.60;52.70
2749;DHT22;1382;52.142;11.618;2023-08-08T03:31:06;17.60;50.70
2749;DHT22;1382;52.142;11.618;2023-08-08T03:33:33;17.60;50.40
2749;DHT22;1382;52.142;11.618;2023-08-08T03:35:59;17.70;51.40
2749;DHT22;1382;52.142;11.618;2023-08-08T03:38:26;17.60;51.60
2749;DHT22;1382;52.142;11.618;2023-08-08T03:40:53;17.60;51.80
2749;DHT22;1382;52.142;11.618;2023-08-08T03:43:22;17.60;51.10
2749;DHT22;1382;52.142;11.618;2023-08-08T03:45:48;17.60;51.30
2749;DHT22;1382;52.142;11.618;2023-08-08T03:48:15;17.60;51.20
2749;DHT22;1382;52.142;11.618;2023-08-08T03:50:42;17.60;51.40
2749;DHT22;1382;52.142;11.618;2023-08-08T03:53:09;17.60;51.40
2749;DHT22;1382;52.142;11.618;2023-08-08T03:55:36;17.70;51.40
2749;DHT22;1382;52.142;11.618;2023-08-08T03:58:03;17.60;51.70
2749;DHT22;1382;52.142;11.618;2023-08-08T04:00:31;17.60;51.00
2749;DHT22;1382;52.142;11.618;2023-08-08T04:02:58;17.60;50.80
2749;DHT22;1382;52.142;11.618;2023-08-08T04:05:25;17.70;51.40
2749;DHT22;1382;52.142;11.618;2023-08-08T04:07:52;17.70;51.60
2749;DHT22;1382;52.142;11.618;2023-08-08T04:10:19;17.70;51.10
2749;DHT22;1382;52.142;11.618;2023-08-08T04:12:45;17.70;51.10
2749;DHT22;1382;52.142;11.618;2023-08-08T04:15:12;17.70;51.00
2749;DHT22;1382;52.142;11.618;2023-08-08T04:17:40;17.70;50.90
2749;DHT22;1382;52.142;11.618;2023-08-08T04:20:08;17.70;50.80
2749;DHT22;1382;52.142;11.618;2023-08-08T04:22:35;17.60;50.80
2749;DHT22;1382;52.142;11.618;2023-08-08T04:25:03;17.60;51.70
2749;DHT22;1382;52.142;11.618;2023-08-08T04:27:29;17.70;53.30
2749;DHT22;1382;52.142;11.618;2023-08-08T04:29:56;17.70;51.70
2749;DHT22;1382;52.142;11.618;2023-08-08T04:32:23;17.70;52.50
2749;DHT22;1382;52.142;11.618;2023-08-08T04:34:51;17.80;52.90
2749;DHT22;1382;52.142;11.618;2023-08-08T04:37:18;17.70;52.30
2749;DHT22;1382;52.142;11.618;2023-08-08T04:39:45;17.70;52.60
2749;DHT22;1382;52.142;11.618;2023-08-08T04:42:11;17.70;52.10
2749;DHT22;1382;52.142;11.618;2023-08-08T04:44:38;17.70;51.80
2749;DHT22;1382;52.142;11.618;2023-08-08T04:47:05;17.70;52.20
2749;DHT22;1382;52.142;11.618;2023-08-08T04:49:32;17.70;52.50
2749;DHT22;1382;52.142;11.618;2023-08-08T04:52:00;17.80;51.90
2749;DHT22;1382;52.142;11.618;2023-08-08T04:54:28;17.90;53.10
2749;DHT22;1382;52.142;11.618;2023-08-08T04:56:55;17.90;52.90
2749;DHT22;1382;52.142;11.618;2023-08-08T04:59:22;17.90;52.50
2749;DHT22;1382;52.142;11.618;2023-08-08T05:01:49;17.90;52.10
2749;DHT22;1382;52.142;11.618;2023-08-08T05:04:17;17.90;51.70
2749;DHT22;1382;52.142;11.618;2023-08-08T05:06:44;18.00;51.90
2749;DHT22;1382;52.142;11.618;2023-08-08T05:09:12;18.00;51.20
2749;DHT22;1382;52.142;11.618;2023-08-08T05:11:39;18.10;51.70
2749;DHT22;1382;52.142;11.618;2023-08-08T05:14:06;18.10;51.90
2749;DHT22;1382;52.142;11.618;2023-08-08T05:16:33;18.10;52.20
2749;DHT22;1382;52.142;11.618;2023-08-08T05:19:00;18.10;52.10
2749;DHT22;1382;52.142;11.618;2023-08-08T05:21:27;18.20;51.70
2749;DHT22;1382;52.142;11.618;2023-08-08T05:23:54;18.20;52.10
2749;DHT22;1382;52.142;11.618;2023-08-08T05:26:22;18.20;51.80
2749;DHT22;1382;52.142;11.618;2023-08-08T05:28:49;18.20;51.70
2749;DHT22;1382;52.142;11.618;2023-08-08T05:31:15;18.20;51.10
2749;DHT22;1382;52.142;11.618;2023-08-08T05:33:42;18.30;51.20
2749;DHT22;1382;52.142;11.618;2023-08-08T05:36:09;18.30;50.60
2749;DHT22;1382;52.142;11.618;2023-08-08T05:38:36;18.30;50.60
2749;DHT22;1382;52.142;11.618;2023-08-08T05:41:03;18.30;50.60
2749;DHT22;1382;52.142;11.618;2023-08-08T05:43:31;18.40;50.90
2749;DHT22;1382;52.142;11.618;2023-08-08T05:45:58;18.40;51.50
2749;DHT22;1382;52.142;11.618;2023-08-08T05:48:25;18.40;51.20
2749;DHT22;1382;52.142;11.618;2023-08-08T05:50:52;18.40;50.30
2749;DHT22;1382;52.142;11.618;2023-08-08T05:53:19;18.40;50.60
2749;DHT22;1382;52.142;11.618;2023-08-08T05:55:46;18.50;51.40
2749;DHT22;1382;52.142;11.618;2023-08-08T05:58:13;18.50;50.60
2749;DHT22;1382;52.142;11.618;2023-08-08T06:00:41;18.50;50.60
2749;DHT22;1382;52.142;11.618;2023-08-08T06:03:08;18.60;50.60
2749;DHT22;1382;52.142;11.618;2023-08-08T06:05:35;18.60;51.00
2749;DHT22;1382;52.142;11.618;2023-08-08T06:08:02;18.60;50.30
2749;DHT22;1382;52.142;11.618;2023-08-08T06:10:29;18.60;50.80
2749;DHT22;1382;52.142;11.618;2023-08-08T06:12:55;18.60;51.60
2749;DHT22;1382;52.142;11.618;2023-08-08T06:15:22;18.60;50.60
2749;DHT22;1382;52.142;11.618;2023-08-08T06:17:50;18.60;50.90
2749;DHT22;1382;52.142;11.618;2023-08-08T06:20:17;18.70;51.50
2749;DHT22;1382;52.142;11.618;2023-08-08T06:22:45;18.70;51.10
2749;DHT22;1382;52.142;11.618;2023-08-08T06:25:11;18.70;51.20
2749;DHT22;1382;52.142;11.618;2023-08-08T06:27:38;18.80;50.40
2749;DHT22;1382;52.142;11.618;2023-08-08T06:30:06;18.80;50.90
2749;DHT22;1382;52.142;11.618;2023-08-08T06:32:33;18.90;50.70
2749;DHT22;1382;52.142;11.618;2023-08-08T06:35:02;18.90;51.20
2749;DHT22;1382;52.142;11.618;2023-08-08T06:37:28;19.00;51.00
2749;DHT22;1382;52.142;11.618;2023-08-08T06:39:55;19.00;51.80
2749;DHT22;1382;52.142;11.618;2023-08-08T06:42:22;19.10;51.20
2749;DHT22;1382;52.142;11.618;2023-08-08T06:44:49;19.20;51.00
2749;DHT22;1382;52.142;11.618;2023-08-08T06:47:16;19.30;51.10
2749;DHT22;1382;52.142;11.618;2023-08-08T06:49:42;19.30;51.20
2749;DHT22;1382;52.142;11.618;2023-08-08T06:52:11;19.30;50.30
2749;DHT22;1382;52.142;11.618;2023-08-08T06:54:38;19.40;50.20
2749;DHT22;1382;52.142;11.618;2023-08-08T06:57:04;19.50;50.30
2749;DHT22;1382;52.142;11.618;2023-08-08T06:59:32;19.60;50.50
2749;DHT22;1382;52.142;11.618;2023-08-08T07:01:59;19.70;50.50
2749;DHT22;1382;52.142;11.618;2023-08-08T07:04:25;19.70;50.60
2749;DHT22;1382;52.142;11.618;2023-08-08T07:06:52;19.80;50.40
2749;DHT22;1382;52.142;11.618;2023-08-08T07:09:20;20.00;50.90
2749;DHT22;1382;52.142;11.618;2023-08-08T07:11:47;20.10;50.30
2749;DHT22;1382;52.142;11.618;2023-08-08T07:14:14;20.20;50.60
2749;DHT22;1382;52.142;11.618;2023-08-08T07:16:41;20.30;50.10
2749;DHT22;1382;52.142;11.618;2023-08-08T07:19:08;20.40;50.50
2749;DHT22;1382;52.142;11.618;2023-08-08T07:21:34;20.60;50.20
2749;DHT22;1382;52.142;11.618;2023-08-08T07:24:01;20.70;50.10
2749;DHT22;1382;52.142;11.618;2023-08-08T07:26:30;20.80;49.80
2749;DHT22;1382;52.142;11.618;2023-08-08T07:28:56;20.90;49.40
2749;DHT22;1382;52.142;11.618;2023-08-08T07:31:23;21.00;49.40
2749;DHT22;1382;52.142;11.618;2023-08-08T07:33:50;21.10;49.60
2749;DHT22;1382;52.142;11.618;2023-08-08T07:36:17;21.20;49.30
2749;DHT22;1382;52.142;11.618;2023-08-08T07:38:44;21.30;48.90
2749;DHT22;1382;52.142;11.618;2023-08-08T07:41:10;21.40;48.80
2749;DHT22;1382;52.142;11.618;2023-08-08T07:43:38;21.60;48.80
2749;DHT22;1382;52.142;11.618;2023-08-08T07:46:05;21.70;48.50
2749;DHT22;1382;52.142;11.618;2023-08-08T07:48:32;21.90;48.20
2749;DHT22;1382;52.142;11.618;2023-08-08T07:50:59;22.00;48.60
2749;DHT22;1382;52.142;11.618;2023-08-08T07:53:26;22.10;48.30
2749;DHT22;1382;52.142;11.618;2023-08-08T07:55:53;22.30;48.30
2749;DHT22;1382;52.142;11.618;2023-08-08T07:58:19;22.30;47.60
2749;DHT22;1382;52.142;11.618;2023-08-08T08:00:48;22.50;47.70
2749;DHT22;1382;52.142;11.618;2023-08-08T08:03:14;22.60;47.70
2749;DHT22;1382;52.142;11.618;2023-08-08T08:05:41;22.70;47.40
2749;DHT22;1382;52.142;11.618;2023-08-08T08:08:08;22.80;47.10
2749;DHT22;1382;52.142;11.618;2023-08-08T08:10:35;22.90;46.60
2749;DHT22;1382;52.142;11.618;2023-08-08T08:13:02;23.00;46.20
2749;DHT22;1382;52.142;11.618;2023-08-08T08:15:28;23.10;45.90
2749;DHT22;1382;52.142;11.618;2023-08-08T08:17:57;23.10;45.80
2749;DHT22;1382;52.142;11.618;2023-08-08T08:20:24;23.20;45.40
2749;DHT22;1382;52.142;11.618;2023-08-08T08:22:50;23.20;45.00
2749;DHT22;1382;52.142;11.618;2023-08-08T08:25:17;23.20;45.40
2749;DHT22;1382;52.142;11.618;2023-08-08T08:27:44;23.30;45.60
2749;DHT22;1382;52.142;11.618;2023-08-08T08:30:12;23.40;45.50
2749;DHT22;1382;52.142;11.618;2023-08-08T08:32:40;23.50;45.30
2749;DHT22;1382;52.142;11.618;2023-08-08T08:35:09;23.60;44.60
2749;DHT22;1382;52.142;11.618;2023-08-08T08:37:35;23.60;44.20
2749;DHT22;1382;52.142;11.618;2023-08-08T08:40:03;23.70;44.10
2749;DHT22;1382;52.142;11.618;2023-08-08T08:42:32;23.70;44.10
2749;DHT22;1382;52.142;11.618;2023-08-08T08:44:59;23.70;43.90
2749;DHT22;1382;52.142;11.618;2023-08-08T08:47:29;23.70;43.70
2749;DHT22;1382;52.142;11.618;2023-08-08T08:49:58;23.80;43.90
2749;DHT22;1382;52.142;11.618;2023-08-08T08:52:26;23.90;43.60
2749;DHT22;1382;52.142;11.618;2023-08-08T08:54:53;23.90;43.20
2749;DHT22;1382;52.142;11.618;2023-08-08T08:57:21;23.90;42.80
2749;DHT22;1382;52.142;11.618;2023-08-08T08:59:48;24.00;42.20
2749;DHT22;1382;52.142;11.618;2023-08-08T09:02:15;24.00;42.40
2749;DHT22;1382;52.142;11.618;2023-08-08T09:04:42;24.10;42.70
2749;DHT22;1382;52.142;11.618;2023-08-08T09:07:09;24.20;42.10
2749;DHT22;1382;52.142;11.618;2023-08-08T09:09:38;24.20;41.80
2749;DHT22;1382;52.142;11.618;2023-08-08T09:12:05;24.30;42.00
2749;DHT22;1382;52.142;11.618;2023-08-08T09:14:32;24.30;41.30
2749;DHT22;1382;52.142;11.618;2023-08-08T09:17:00;24.50;41.50
2749;DHT22;1382;52.142;11.618;2023-08-08T09:19:26;24.40;40.90
2749;DHT22;1382;52.142;11.618;2023-08-08T09:21:53;24.30;40.50
2749;DHT22;1382;52.142;11.618;2023-08-08T09:24:20;24.30;41.20
2749;DHT22;1382;52.142;11.618;2023-08-08T09:26:48;24.40;41.10
2749;DHT22;1382;52.142;11.618;2023-08-08T09:29:15;24.40;42.20
2749;DHT22;1382;52.142;11.618;2023-08-08T09:31:42;24.50;41.10
2749;DHT22;1382;52.142;11.618;2023-08-08T09:34:09;24.50;40.80
2749;DHT22;1382;52.142;11.618;2023-08-08T09:36:36;24.50;40.80
2749;DHT22;1382;52.142;11.618;2023-08-08T09:39:03;24.60;38.90
2749;DHT22;1382;52.142;11.618;2023-08-08T09:41:31;24.50;39.80
2749;DHT22;1382;52.142;11.618;2023-08-08T09:43:59;24.50;39.50
2749;DHT22;1382;52.142;11.618;2023-08-08T09:46:28;24.40;40.60
2749;DHT22;1382;52.142;11.618;2023-08-08T09:48:56;24.40;40.60
2749;DHT22;1382;52.142;11.618;2023-08-08T09:51:24;24.40;40.30
2749;DHT22;1382;52.142;11.618;2023-08-08T09:53:51;24.40;40.80
2749;DHT22;1382;52.142;11.618;2023-08-08T09:56:19;24.40;41.10
2749;DHT22;1382;52.142;11.618;2023-08-08T09:58:46;24.50;41.10
2749;DHT22;1382;52.142;11.618;2023-08-08T10:01:15;24.50;40.20
2749;DHT22;1382;52.142;11.618;2023-08-08T10:03:44;24.50;39.70
2749;DHT22;1382;52.142;11.618;2023-08-08T10:06:13;24.50;40.50
2749;DHT22;1382;52.142;11.618;2023-08-08T10:08:40;24.50;39.80
2749;DHT22;1382;52.142;11.618;2023-08-08T10:11:07;24.50;40.40
2749;DHT22;1382;52.142;11.618;2023-08-08T10:13:35;24.50;39.30
2749;DHT22;1382;52.142;11.618;2023-08-08T10:16:07;24.50;40.90
2749;DHT22;1382;52.142;11.618;2023-08-08T10:18:36;24.60;40.40
2749;DHT22;1382;52.142;11.618;2023-08-08T10:21:04;24.70;40.60
2749;DHT22;1382;52.142;11.618;2023-08-08T10:23:36;24.90;40.30
2749;DHT22;1382;52.142;11.618;2023-08-08T10:26:04;25.00;40.30
2749;DHT22;1382;52.142;11.618;2023-08-08T10:28:32;25.10;39.60
2749;DHT22;1382;52.142;11.618;2023-08-08T10:31:00;25.00;40.00
2749;DHT22;1382;52.142;11.618;2023-08-08T10:33:38;25.00;40.60
2749;DHT22;1382;52.142;11.618;2023-08-08T10:36:07;24.90;40.30
2749;DHT22;1382;52.142;11.618;2023-08-08T10:38:42;24.80;40.20
2749;DHT22;1382;52.142;11.618;2023-08-08T10:41:10;24.80;41.00
2749;DHT22;1382;52.142;11.618;2023-08-08T10:43:38;24.60;40.90
2749;DHT22;1382;52.142;11.618;2023-08-08T10:46:05;24.60;41.60
2749;DHT22;1382;52.142;11.618;2023-08-08T10:48:50;24.50;41.30
2749;DHT22;1382;52.142;11.618;2023-08-08T10:51:19;24.40;42.40
2749;DHT22;1382;52.142;11.618;2023-08-08T10:53:46;24.30;43.50
2749;DHT22;1382;52.142;11.618;2023-08-08T10:56:13;24.30;44.10
2749;DHT22;1382;52.142;11.618;2023-08-08T10:58:46;24.20;44.30
2749;DHT22;1382;52.142;11.618;2023-08-08T11:01:13;24.20;44.80
2749;DHT22;1382;52.142;11.618;2023-08-08T11:03:41;24.20;44.50
2749;DHT22;1382;52.142;11.618;2023-08-08T11:06:10;24.20;45.10
2749;DHT22;1382;52.142;11.618;2023-08-08T11:08:38;24.20;44.90
2749;DHT22;1382;52.142;11.618;2023-08-08T11:11:06;24.20;44.60
2749;DHT22;1382;52.142;11.618;2023-08-08T11:13:33;24.20;44.60
2749;DHT22;1382;52.142;11.618;2023-08-08T11:15:59;24.30;44.90
2749;DHT22;1382;52.142;11.618;2023-08-08T11:18:27;24.20;45.30
2749;DHT22;1382;52.142;11.618;2023-08-08T11:20:54;24.30;45.10
2749;DHT22;1382;52.142;11.618;2023-08-08T11:23:34;24.30;45.30
2749;DHT22;1382;52.142;11.618;2023-08-08T11:26:02;24.30;45.20
2749;DHT22;1382;52.142;11.618;2023-08-08T11:28:32;24.30;44.90
2749;DHT22;1382;52.142;11.618;2023-08-08T11:30:59;24.30;45.20
2749;DHT22;1382;52.142;11.618;2023-08-08T11:33:26;24.30;45.60
2749;DHT22;1382;52.142;11.618;2023-08-08T11:35:53;24.30;45.60
2749;DHT22;1382;52.142;11.618;2023-08-08T11:38:20;24.30;45.90
2749;DHT22;1382;52.142;11.618;2023-08-08T11:40:47;24.30;45.80
2749;DHT22;1382;52.142;11.618;2023-08-08T11:43:16;24.30;45.90
2749;DHT22;1382;52.142;11.618;2023-08-08T11:45:43;24.40;45.60
2749;DHT22;1382;52.142;11.618;2023-08-08T11:48:10;24.40;45.10
2749;DHT22;1382;52.142;11.618;2023-08-08T11:50:37;24.40;45.20
2749;DHT22;1382;52.142;11.618;2023-08-08T11:53:04;24.40;45.00
2749;DHT22;1382;52.142;11.618;2023-08-08T11:55:32;24.40;45.20
2749;DHT22;1382;52.142;11.618;2023-08-08T11:58:00;24.40;44.80
2749;DHT22;1382;52.142;11.618;2023-08-08T12:00:29;24.40;45.00
2749;DHT22;1382;52.142;11.618;2023-08-08T12:02:57;24.40;44.90
2749;DHT22;1382;52.142;11.618;2023-08-08T12:05:25;24.50;44.90
2749;DHT22;1382;52.142;11.618;2023-08-08T12:07:52;24.50;44.90
2749;DHT22;1382;52.142;11.618;2023-08-08T12:10:20;24.60;45.20
2749;DHT22;1382;52.142;11.618;2023-08-08T12:12:52;24.60;45.10
2749;DHT22;1382;52.142;11.618;2023-08-08T12:15:20;24.70;43.90
2749;DHT22;1382;52.142;11.618;2023-08-08T12:17:49;24.70;44.00
2749;DHT22;1382;52.142;11.618;2023-08-08T12:20:16;24.80;44.40
2749;DHT22;1382;52.142;11.618;2023-08-08T12:22:42;24.90;44.20
2749;DHT22;1382;52.142;11.618;2023-08-08T12:25:09;25.00;44.40
2749;DHT22;1382;52.142;11.618;2023-08-08T12:27:36;25.10;43.60
2749;DHT22;1382;52.142;11.618;2023-08-08T12:30:04;25.20;42.50
2749;DHT22;1382;52.142;11.618;2023-08-08T12:32:31;25.20;42.50
2749;DHT22;1382;52.142;11.618;2023-08-08T12:35:00;25.30;41.60
2749;DHT22;1382;52.142;11.618;2023-08-08T12:37:26;25.40;42.60
2749;DHT22;1382;52.142;11.618;2023-08-08T12:39:53;25.50;42.30
2749;DHT22;1382;52.142;11.618;2023-08-08T12:42:20;25.60;42.40
2749;DHT22;1382;52.142;11.618;2023-08-08T12:44:47;25.60;41.70
2749;DHT22;1382;52.142;11.618;2023-08-08T12:47:14;25.70;41.90
2749;DHT22;1382;52.142;11.618;2023-08-08T12:49:41;25.70;41.20
2749;DHT22;1382;52.142;11.618;2023-08-08T12:52:10;25.70;41.70
2749;DHT22;1382;52.142;11.618;2023-08-08T12:54:37;25.70;41.60
2749;DHT22;1382;52.142;11.618;2023-08-08T12:57:04;25.70;41.60
2749;DHT22;1382;52.142;11.618;2023-08-08T12:59:30;25.70;41.30
2749;DHT22;1382;52.142;11.618;2023-08-08T13:01:57;25.80;40.80
2749;DHT22;1382;52.142;11.618;2023-08-08T13:04:25;25.70;40.30
2749;DHT22;1382;52.142;11.618;2023-08-08T13:06:52;25.80;40.80
2749;DHT22;1382;52.142;11.618;2023-08-08T13:09:20;25.90;41.30
2749;DHT22;1382;52.142;11.618;2023-08-08T13:11:47;25.90;41.40
2749;DHT22;1382;52.142;11.618;2023-08-08T13:14:14;26.00;41.40
2749;DHT22;1382;52.142;11.618;2023-08-08T13:16:41;26.10;42.00
2749;DHT22;1382;52.142;11.618;2023-08-08T13:19:08;26.20;40.70
2749;DHT22;1382;52.142;11.618;2023-08-08T13:21:34;26.30;40.40
2749;DHT22;1382;52.142;11.618;2023-08-08T13:24:01;26.30;39.80
2749;DHT22;1382;52.142;11.618;2023-08-08T13:26:29;26.40;39.60
2749;DHT22;1382;52.142;11.618;2023-08-08T13:28:57;26.50;38.50
2749;DHT22;1382;52.142;11.618;2023-08-08T13:31:23;26.60;37.90
2749;DHT22;1382;52.142;11.618;2023-08-08T13:33:50;26.60;39.20
2749;DHT22;1382;52.142;11.618;2023-08-08T13:36:17;26.70;39.10
2749;DHT22;1382;52.142;11.618;2023-08-08T13:38:44;26.80;37.00
2749;DHT22;1382;52.142;11.618;2023-08-08T13:41:10;26.80;37.50
2749;DHT22;1382;52.142;11.618;2023-08-08T13:43:38;26.90;37.70
2749;DHT22;1382;52.142;11.618;2023-08-08T13:46:05;27.00;38.50
2749;DHT22;1382;52.142;11.618;2023-08-08T13:48:32;27.10;38.80
2749;DHT22;1382;52.142;11.618;2023-08-08T13:50:59;27.20;36.50
2749;DHT22;1382;52.142;11.618;2023-08-08T13:53:26;27.30;36.60
2749;DHT22;1382;52.142;11.618;2023-08-08T13:55:53;27.30;37.10
2749;DHT22;1382;52.142;11.618;2023-08-08T13:58:20;27.40;35.90
2749;DHT22;1382;52.142;11.618;2023-08-08T14:00:48;27.50;37.00
2749;DHT22;1382;52.142;11.618;2023-08-08T14:03:15;27.50;35.20
2749;DHT22;1382;52.142;11.618;2023-08-08T14:05:43;27.50;35.20
2749;DHT22;1382;52.142;11.618;2023-08-08T14:08:10;27.40;34.30
2749;DHT22;1382;52.142;11.618;2023-08-08T14:10:37;27.40;35.20
2749;DHT22;1382;52.142;11.618;2023-08-08T14:13:04;27.30;35.60
2749;DHT22;1382;52.142;11.618;2023-08-08T14:15:31;27.40;34.60
2749;DHT22;1382;52.142;11.618;2023-08-08T14:17:59;27.40;34.20
2749;DHT22;1382;52.142;11.618;2023-08-08T14:20:26;27.30;34.80
2749;DHT22;1382;52.142;11.618;2023-08-08T14:22:53;27.40;33.60
2749;DHT22;1382;52.142;11.618;2023-08-08T14:25:20;27.30;34.30
2749;DHT22;1382;52.142;11.618;2023-08-08T14:27:47;27.30;34.10
2749;DHT22;1382;52.142;11.618;2023-08-08T14:30:14;27.30;33.30
2749;DHT22;1382;52.142;11.618;2023-08-08T14:32:41;27.30;34.30
2749;DHT22;1382;52.142;11.618;2023-08-08T14:35:09;27.30;35.20
2749;DHT22;1382;52.142;11.618;2023-08-08T14:37:36;27.30;33.80
2749;DHT22;1382;52.142;11.618;2023-08-08T14:40:03;27.20;33.80
2749;DHT22;1382;52.142;11.618;2023-08-08T14:42:30;27.20;33.20
2749;DHT22;1382;52.142;11.618;2023-08-08T14:44:57;27.20;32.20
2749;DHT22;1382;52.142;11.618;2023-08-08T14:47:24;27.10;32.00
2749;DHT22;1382;52.142;11.618;2023-08-08T14:49:51;27.10;32.20
2749;DHT22;1382;52.142;11.618;2023-08-08T14:52:19;27.00;31.60
2749;DHT22;1382;52.142;11.618;2023-08-08T14:54:46;26.80;32.20
2749;DHT22;1382;52.142;11.618;2023-08-08T14:57:13;26.60;32.00
2749;DHT22;1382;52.142;11.618;2023-08-08T14:59:39;26.50;33.10
2749;DHT22;1382;52.142;11.618;2023-08-08T15:02:06;26.30;34.00
2749;DHT22;1382;52.142;11.618;2023-08-08T15:04:33;26.10;34.20
2749;DHT22;1382;52.142;11.618;2023-08-08T15:07:00;25.90;35.90
2749;DHT22;1382;52.142;11.618;2023-08-08T15:09:29;25.70;37.90
2749;DHT22;1382;52.142;11.618;2023-08-08T15:11:55;25.60;38.20
2749;DHT22;1382;52.142;11.618;2023-08-08T15:14:22;25.70;38.90
2749;DHT22;1382;52.142;11.618;2023-08-08T15:16:50;25.70;38.60
2749;DHT22;1382;52.142;11.618;2023-08-08T15:19:17;25.70;39.10
2749;DHT22;1382;52.142;11.618;2023-08-08T15:21:44;25.70;39.10
2749;DHT22;1382;52.142;11.618;2023-08-08T15:24:11;25.70;38.80
2749;DHT22;1382;52.142;11.618;2023-08-08T15:26:39;25.60;38.00
2749;DHT22;1382;52.142;11.618;2023-08-08T15:29:06;25.50;38.60
2749;DHT22;1382;52.142;11.618;2023-08-08T15:31:32;25.40;37.90
2749;DHT22;1382;52.142;11.618;2023-08-08T15:33:59;25.30;38.20
2749;DHT22;1382;52.142;11.618;2023-08-08T15:36:26;25.30;38.50
2749;DHT22;1382;52.142;11.618;2023-08-08T15:38:53;25.20;38.30
2749;DHT22;1382;52.142;11.618;2023-08-08T15:41:20;25.20;38.00
2749;DHT22;1382;52.142;11.618;2023-08-08T15:43:48;25.20;37.50
2749;DHT22;1382;52.142;11.618;2023-08-08T15:46:15;25.20;38.60